Time;durP1;ratioP1;P1;durP2;ratioP2;P2;SDS_P1;SDS_P2;PMS_P1;PMS_P2;Temp;Humidity;BMP_temperature;BMP_pressure;BME280_temperature;BME280_humidity;BME280_pressure;Samples;Min_cycle;Max_cycle;Signal;HPM_P1;HPM_P2
2021/09/08 00:01:03;;;;;;;42.00;28.40;;;;;;;21.81;61.82;101871.56;4804471;28;121818;-73
2021/09/08 00:03:29;;;;;;;42.97;29.07;;;;;;;21.79;61.34;101868.50;4816523;28;123053;-73
2021/09/08 00:05:54;;;;;;;42.73;29.00;;;;;;;21.80;61.53;101863.69;4821203;28;121803;-73
2021/09/08 00:08:21;;;;;;;43.83;28.83;;;;;;;21.80;61.24;101864.44;4827633;28;122793;-73
2021/09/08 00:10:46;;;;;;;40.35;28.92;;;;;;;21.74;61.48;101849.69;4807400;28;125139;-73
2021/09/08 00:13:13;;;;;;;43.42;29.40;;;;;;;21.77;60.88;101857.06;4825796;28;123687;-73
2021/09/08 00:15:38;;;;;;;43.40;28.03;;;;;;;21.79;61.32;101848.19;4827071;28;122155;-73
2021/09/08 00:18:05;;;;;;;38.75;27.70;;;;;;;21.80;61.47;101849.72;4842332;28;123663;-73
2021/09/08 00:20:31;;;;;;;38.85;27.27;;;;;;;21.80;60.76;101852.50;4827300;28;122776;-73
2021/09/08 00:22:57;;;;;;;39.93;27.80;;;;;;;21.80;60.99;101847.69;4796202;28;123308;-73
2021/09/08 00:25:23;;;;;;;40.22;26.77;;;;;;;21.78;61.21;101833.47;4825115;28;121926;-73
2021/09/08 00:27:49;;;;;;;39.80;26.20;;;;;;;21.81;61.46;101845.66;4822550;28;123149;-73
2021/09/08 00:30:15;;;;;;;38.07;26.93;;;;;;;21.79;60.86;101843.38;4825252;28;122783;-73
2021/09/08 00:32:42;;;;;;;38.75;27.55;;;;;;;21.78;60.81;101835.50;4819749;28;122278;-73
2021/09/08 00:35:08;;;;;;;41.88;27.17;;;;;;;21.81;60.70;101840.84;4810657;29;123888;-73
2021/09/08 00:37:38;;;;;;;40.43;27.20;;;;;;;21.81;61.14;101840.84;4825160;28;122599;-72
2021/09/08 00:40:07;;;;;;;39.70;26.67;;;;;;;21.82;61.50;101839.56;4820883;28;121774;-73
2021/09/08 00:42:35;;;;;;;40.22;27.48;;;;;;;21.81;61.10;101837.28;4822288;28;121819;-73
2021/09/08 00:45:05;;;;;;;42.30;28.00;;;;;;;21.77;61.03;101831.94;4827908;28;122645;-74
2021/09/08 00:47:31;;;;;;;38.85;26.58;;;;;;;21.82;61.34;101834.00;4826550;28;122870;-73
2021/09/08 00:49:57;;;;;;;40.30;27.80;;;;;;;21.78;60.85;101833.47;4812927;29;121695;-73
2021/09/08 00:52:24;;;;;;;38.92;27.95;;;;;;;21.81;61.28;101835.25;4826541;28;122098;-72
2021/09/08 00:54:53;;;;;;;42.42;28.42;;;;;;;21.82;61.02;101831.19;4827822;28;124495;-73
2021/09/08 00:57:20;;;;;;;42.77;28.10;;;;;;;21.83;60.81;101829.16;4822564;28;124281;-73
2021/09/08 00:59:47;;;;;;;43.50;28.98;;;;;;;21.84;61.01;101827.91;4815657;28;121863;-73
2021/09/08 01:02:15;;;;;;;43.33;29.17;;;;;;;21.84;60.85;101831.44;4827253;28;122240;-72
2021/09/08 01:04:43;;;;;;;43.33;29.10;;;;;;;21.84;60.73;101820.28;4827656;28;121705;-73
2021/09/08 01:07:09;;;;;;;45.37;31.97;;;;;;;21.86;60.48;101825.38;4824548;28;122411;-73
2021/09/08 01:09:38;;;;;;;44.83;31.40;;;;;;;21.82;61.05;101817.22;4821326;28;122574;-72
2021/09/08 01:12:07;;;;;;;47.42;32.35;;;;;;;21.86;60.94;101820.53;4808239;29;122257;-72
2021/09/08 01:14:35;;;;;;;47.70;33.60;;;;;;;21.86;60.87;101823.34;4822553;28;121911;-72
2021/09/08 01:17:02;;;;;;;47.30;32.38;;;;;;;21.83;61.28;101818.00;4809173;29;125466;-73
2021/09/08 01:19:27;;;;;;;45.92;32.28;;;;;;;21.85;60.97;101824.59;4808353;28;122392;-73
2021/09/08 01:21:53;;;;;;;50.67;33.50;;;;;;;21.86;60.78;101828.91;4816294;29;123539;-74
2021/09/08 01:24:19;;;;;;;45.53;32.60;;;;;;;21.86;61.08;101823.34;4824250;28;121756;-73
2021/09/08 01:26:48;;;;;;;49.75;34.10;;;;;;;21.87;60.80;101824.09;4821341;28;122398;-73
2021/09/08 01:29:14;;;;;;;46.33;32.50;;;;;;;21.86;60.49;101812.16;4795683;28;123816;-73
2021/09/08 01:31:39;;;;;;;48.90;34.28;;;;;;;21.85;60.36;101810.63;4809779;29;121849;-73
2021/09/08 01:34:05;;;;;;;50.47;34.28;;;;;;;21.83;60.75;101813.16;4824527;28;123126;-73
2021/09/08 01:36:39;;;;;;;49.35;33.53;;;;;;;21.83;61.13;101812.41;4828665;28;122416;-73
2021/09/08 01:39:05;;;;;;;48.90;34.07;;;;;;;21.84;61.02;101813.94;4821994;28;123128;-73
2021/09/08 01:41:30;;;;;;;47.05;33.28;;;;;;;21.84;61.05;101811.91;4796250;28;122924;-74
2021/09/08 01:43:56;;;;;;;49.28;34.70;;;;;;;21.82;60.87;101811.66;4811224;29;121836;-73
2021/09/08 01:46:23;;;;;;;47.80;33.70;;;;;;;21.85;60.80;101821.81;4820586;28;122060;-73
2021/09/08 01:48:49;;;;;;;49.42;34.40;;;;;;;21.85;61.19;101815.47;4820595;28;122389;-74
2021/09/08 01:51:16;;;;;;;52.50;35.20;;;;;;;21.83;61.14;101812.41;4808730;29;121819;-72
2021/09/08 01:53:42;;;;;;;50.60;34.58;;;;;;;21.84;60.89;101813.94;4821337;28;121881;-73
2021/09/08 01:56:08;;;;;;;48.90;34.03;;;;;;;21.85;60.79;101821.81;4818751;28;125727;-73
2021/09/08 01:58:35;;;;;;;48.65;32.88;;;;;;;21.81;61.16;101814.94;4800723;28;122421;-73
2021/09/08 02:01:01;;;;;;;48.92;33.80;;;;;;;21.81;61.34;101821.28;4818890;28;122303;-73
2021/09/08 02:03:27;;;;;;;47.42;34.88;;;;;;;21.80;60.78;101808.59;4824874;28;122541;-72
2021/09/08 02:05:53;;;;;;;46.83;33.90;;;;;;;21.80;61.09;101808.59;4826170;28;122343;-74
2021/09/08 02:08:18;;;;;;;48.13;34.33;;;;;;;21.80;60.95;101813.41;4798825;28;122864;-73
2021/09/08 02:10:44;;;;;;;47.87;33.70;;;;;;;21.77;60.74;101812.41;4816918;28;122165;-72
2021/09/08 02:13:11;;;;;;;47.97;34.90;;;;;;;21.78;60.85;101815.94;4824795;28;124122;-73
2021/09/08 02:15:37;;;;;;;51.97;35.43;;;;;;;21.75;61.02;101809.31;4828609;28;122271;-73
2021/09/08 02:18:03;;;;;;;47.72;35.45;;;;;;;21.76;60.87;101808.03;4828778;28;123046;-73
2021/09/08 02:20:29;;;;;;;48.67;35.08;;;;;;;21.78;60.96;101816.72;4811825;29;123576;-73
2021/09/08 02:22:55;;;;;;;50.08;34.45;;;;;;;21.78;61.44;101810.38;4810207;29;122442;-73
2021/09/08 02:25:20;;;;;;;49.03;34.43;;;;;;;21.79;61.37;101809.09;4832610;28;121892;-73
2021/09/08 02:27:46;;;;;;;47.93;35.37;;;;;;;21.79;61.11;101812.66;4805497;29;122236;-73
2021/09/08 02:30:13;;;;;;;48.40;33.93;;;;;;;21.82;61.42;101808.84;4810834;28;122618;-73
2021/09/08 02:32:39;;;;;;;49.75;35.53;;;;;;;21.81;60.86;101809.34;4827488;28;124154;-73
2021/09/08 02:35:06;;;;;;;50.37;36.93;;;;;;;21.82;60.58;101805.31;4820399;28;125254;-74
2021/09/08 02:37:33;;;;;;;48.72;35.90;;;;;;;21.80;60.73;101803.00;4824362;28;121947;-73
2021/09/08 02:39:59;;;;;;;49.23;36.00;;;;;;;21.81;60.70;101801.75;4822994;28;122122;-73
2021/09/08 02:42:25;;;;;;;50.30;35.35;;;;;;;21.84;61.24;101802.75;4824182;28;124700;-73
2021/09/08 02:44:50;;;;;;;51.10;36.97;;;;;;;21.83;61.31;101801.22;4827330;28;122191;-73
2021/09/08 02:47:16;;;;;;;50.47;36.80;;;;;;;21.84;61.01;101799.97;4829147;28;122677;-73
2021/09/08 02:49:42;;;;;;;47.83;35.70;;;;;;;21.84;61.35;101797.94;4824262;28;121933;-73
2021/09/08 02:52:08;;;;;;;51.00;36.67;;;;;;;21.85;61.17;101802.25;4823371;28;122033;-73
2021/09/08 02:54:35;;;;;;;52.33;36.60;;;;;;;21.86;60.79;101806.56;4807442;28;124474;-72
2021/09/08 02:57:01;;;;;;;49.58;36.10;;;;;;;21.86;60.64;101801.00;4821664;28;122051;-73
2021/09/08 02:59:28;;;;;;;50.90;35.28;;;;;;;21.84;60.83;101794.38;4826006;28;121922;-74
2021/09/08 03:01:54;;;;;;;50.80;37.35;;;;;;;21.86;60.80;101795.41;4820470;28;121677;-73
2021/09/08 03:04:19;;;;;;;52.00;38.67;;;;;;;21.84;61.15;101788.78;4823936;28;122135;-73
2021/09/08 03:06:48;;;;;;;50.97;38.33;;;;;;;21.82;60.73;101794.88;4820259;28;122150;-73
2021/09/08 03:09:14;;;;;;;51.08;38.13;;;;;;;21.83;60.91;101793.63;4819720;28;122075;-73
2021/09/08 03:11:40;;;;;;;53.85;40.08;;;;;;;21.85;60.68;101795.91;4827910;28;122203;-73
2021/09/08 03:14:09;;;;;;;55.03;39.72;;;;;;;21.85;60.09;101793.13;4821706;28;122226;-73
2021/09/08 03:16:35;;;;;;;56.65;40.72;;;;;;;21.85;60.25;101787.53;4825749;28;122121;-73
2021/09/08 03:19:00;;;;;;;54.90;38.83;;;;;;;21.84;60.86;101789.56;4826699;28;121781;-74
2021/09/08 03:21:26;;;;;;;55.70;40.55;;;;;;;21.83;61.25;101790.81;4805822;28;124314;-73
2021/09/08 03:23:51;;;;;;;54.70;40.47;;;;;;;21.87;60.83;101793.38;4814251;29;122223;-73
2021/09/08 03:26:18;;;;;;;54.07;39.27;;;;;;;21.87;60.67;101791.34;4826645;28;121695;-72
2021/09/08 03:28:44;;;;;;;52.63;39.07;;;;;;;21.88;61.01;101786.53;4825931;28;121807;-73
2021/09/08 03:31:09;;;;;;;53.43;39.60;;;;;;;21.86;60.92;101781.44;4828383;28;122003;-73
2021/09/08 03:33:35;;;;;;;55.90;40.43;;;;;;;21.89;60.93;101782.47;4762414;29;1175072;-73
2021/09/08 03:36:01;;;;;;;54.90;40.45;;;;;;;21.87;60.83;101776.63;4826020;28;122234;-73
2021/09/08 03:38:26;;;;;;;54.88;40.00;;;;;;;21.88;60.96;101773.31;4825691;28;123275;-73
2021/09/08 03:40:53;;;;;;;52.88;39.55;;;;;;;21.89;61.11;101766.47;4821299;28;121834;-73
2021/09/08 03:43:18;;;;;;;55.10;40.38;;;;;;;21.89;60.24;101760.88;4822428;28;122305;-72
2021/09/08 03:45:44;;;;;;;54.40;40.57;;;;;;;21.87;60.75;101769.00;4825308;28;123886;-72
2021/09/08 03:48:10;;;;;;;53.72;40.40;;;;;;;21.90;60.92;101764.44;4807824;28;123192;-74
2021/09/08 03:50:35;;;;;;;54.83;41.30;;;;;;;21.90;60.78;101768.00;4822447;28;121974;-72
2021/09/08 03:53:01;;;;;;;56.92;41.63;;;;;;;21.89;61.11;101765.69;4821939;28;122759;-73
2021/09/08 03:55:26;;;;;;;56.67;42.13;;;;;;;21.89;60.95;101765.69;4824548;28;122035;-72
2021/09/08 03:57:52;;;;;;;58.20;42.13;;;;;;;21.89;60.55;101774.09;4837455;28;122830;-73
2021/09/08 04:00:18;;;;;;;55.38;41.83;;;;;;;21.87;60.49;101769.00;4822997;28;122382;-74
2021/09/08 04:02:47;;;;;;;54.95;42.15;;;;;;;21.86;61.07;101761.88;4826843;28;122764;-73
2021/09/08 04:05:13;;;;;;;55.78;42.47;;;;;;;21.85;60.87;101763.16;4816333;28;122098;-73
2021/09/08 04:07:39;;;;;;;56.20;41.00;;;;;;;21.85;60.80;101759.59;4801977;29;124819;-73
2021/09/08 04:10:05;;;;;;;54.70;42.10;;;;;;;21.86;60.97;101761.88;4826556;28;124329;-73
2021/09/08 04:12:31;;;;;;;56.47;42.92;;;;;;;21.88;60.92;101753.00;4796200;28;121704;-73
2021/09/08 04:14:56;;;;;;;57.17;43.35;;;;;;;21.87;60.01;101755.03;4812556;28;122178;-73
2021/09/08 04:17:22;;;;;;;54.10;41.33;;;;;;;21.85;60.32;101748.44;4792043;29;123577;-73
2021/09/08 04:19:48;;;;;;;54.78;41.95;;;;;;;21.85;61.19;101740.81;4829970;28;122427;-73
2021/09/08 04:22:14;;;;;;;54.53;41.70;;;;;;;21.78;60.75;101724.56;4817526;28;122633;-74
2021/09/08 04:24:39;;;;;;;53.00;41.63;;;;;;;21.87;60.94;101752.25;4819530;28;122353;-75
2021/09/08 04:27:05;;;;;;;57.30;42.88;;;;;;;21.86;60.42;101745.13;4823057;28;121832;-73
2021/09/08 04:29:31;;;;;;;58.65;43.20;;;;;;;21.85;60.08;101743.59;4821391;28;121919;-73
2021/09/08 04:31:56;;;;;;;55.08;42.67;;;;;;;21.81;60.76;101743.09;4822676;28;122287;-74
2021/09/08 04:34:22;;;;;;;55.20;42.40;;;;;;;21.87;61.02;101757.81;4828975;28;122189;-74
2021/09/08 04:36:47;;;;;;;54.57;42.03;;;;;;;21.86;60.78;101750.72;4825858;28;124892;-73
2021/09/08 04:39:13;;;;;;;55.00;42.03;;;;;;;21.86;61.18;101739.53;4817527;28;121995;-73
2021/09/08 04:41:39;;;;;;;57.60;42.70;;;;;;;21.83;60.62;101734.97;4810790;28;122243;-73
2021/09/08 04:44:04;;;;;;;56.22;42.45;;;;;;;21.87;60.65;101743.09;4825850;28;124473;-73
2021/09/08 04:46:30;;;;;;;58.85;43.30;;;;;;;21.86;60.66;101742.34;4806574;29;121523;-73
2021/09/08 04:48:56;;;;;;;59.00;43.53;;;;;;;21.73;61.16;101722.50;4825218;28;121994;-73
2021/09/08 04:51:22;;;;;;;56.78;42.42;;;;;;;21.85;61.08;101746.41;4824502;28;122055;-73
2021/09/08 04:53:48;;;;;;;56.80;43.70;;;;;;;21.85;60.91;101749.19;4822421;28;124473;-73
2021/09/08 04:56:14;;;;;;;56.60;43.87;;;;;;;21.85;61.24;101745.63;4824796;28;121602;-73
2021/09/08 04:58:40;;;;;;;60.10;44.23;;;;;;;21.82;60.82;101739.03;4828662;28;122149;-73
2021/09/08 05:01:05;;;;;;;57.43;43.43;;;;;;;21.84;60.69;101742.06;4828203;29;121647;-74
2021/09/08 05:03:34;;;;;;;58.63;44.53;;;;;;;21.82;60.72;101741.81;4804115;29;124443;-73
2021/09/08 05:05:59;;;;;;;59.20;43.63;;;;;;;21.74;61.21;101733.16;4810456;28;122865;-73
2021/09/08 05:08:25;;;;;;;56.75;43.70;;;;;;;21.82;61.22;101746.66;4824632;28;121597;-73
2021/09/08 05:10:51;;;;;;;59.55;44.58;;;;;;;21.81;61.24;101745.13;4809995;28;123995;-73
2021/09/08 05:13:16;;;;;;;58.97;44.33;;;;;;;21.79;61.29;101742.84;4808278;28;124363;-73
2021/09/08 05:15:42;;;;;;;59.67;45.30;;;;;;;21.78;61.26;101746.91;4821553;28;121549;-73
2021/09/08 05:18:08;;;;;;;58.13;43.80;;;;;;;21.80;61.21;101752.75;4826649;28;121512;-73
2021/09/08 05:20:34;;;;;;;59.57;45.00;;;;;;;21.82;61.07;101749.44;4828248;28;121485;-73
2021/09/08 05:22:59;;;;;;;58.23;44.13;;;;;;;21.80;61.43;101747.16;4828710;28;124082;-73
2021/09/08 05:25:25;;;;;;;59.42;44.72;;;;;;;21.78;61.35;101743.34;4819612;28;121916;-73
2021/09/08 05:27:51;;;;;;;58.43;44.43;;;;;;;21.80;60.87;101747.16;4826046;28;121995;-73
2021/09/08 05:30:17;;;;;;;58.13;43.93;;;;;;;21.75;60.84;101733.91;4839330;28;121518;-74
2021/09/08 05:32:42;;;;;;;61.28;45.85;;;;;;;21.83;61.00;101754.53;4805114;28;124826;-73
2021/09/08 05:35:12;;;;;;;63.90;45.20;;;;;;;21.86;61.09;101749.94;4827519;28;122211;-73
2021/09/08 05:37:39;;;;;;;60.63;44.77;;;;;;;21.84;61.60;101749.69;4824528;28;121453;-73
2021/09/08 05:40:07;;;;;;;60.95;45.38;;;;;;;21.85;61.21;101749.19;4812648;29;123068;-73
2021/09/08 05:42:33;;;;;;;58.20;44.00;;;;;;;21.87;61.42;101749.44;4823035;28;121786;-73
2021/09/08 05:44:58;;;;;;;59.63;44.73;;;;;;;21.85;61.05;101743.59;4825556;28;121830;-73
2021/09/08 05:47:27;;;;;;;60.58;45.53;;;;;;;21.90;61.51;101750.47;4816809;28;121775;-73
2021/09/08 05:49:53;;;;;;;60.47;45.00;;;;;;;21.92;61.20;101756.31;4828695;28;122091;-73
2021/09/08 05:52:18;;;;;;;60.75;45.47;;;;;;;21.92;60.62;101754.28;4831360;28;122104;-73
2021/09/08 05:54:44;;;;;;;58.70;44.87;;;;;;;21.92;61.10;101739.56;4828557;28;121985;-73
2021/09/08 05:57:10;;;;;;;59.37;45.07;;;;;;;21.96;61.13;101754.78;4825210;28;121411;-74
2021/09/08 05:59:35;;;;;;;60.20;46.43;;;;;;;21.96;61.14;101749.22;4826121;28;123270;-73
2021/09/08 06:02:01;;;;;;;59.63;45.30;;;;;;;21.97;61.76;101759.13;4831419;28;122086;-74
2021/09/08 06:04:26;;;;;;;59.58;46.03;;;;;;;21.97;60.63;101749.97;4828258;28;122078;-73
2021/09/08 06:06:54;;;;;;;60.22;45.35;;;;;;;22.00;61.36;101751.75;4839895;28;121556;-73
2021/09/08 06:09:19;;;;;;;59.75;46.35;;;;;;;22.03;60.77;101759.16;4831686;28;121689;-74
2021/09/08 06:11:45;;;;;;;60.63;45.72;;;;;;;22.05;61.33;101749.00;4846071;28;121253;-73
2021/09/08 06:14:12;;;;;;;60.40;45.83;;;;;;;22.07;61.26;101765.28;4826214;28;121607;-74
2021/09/08 06:16:39;;;;;;;59.03;46.08;;;;;;;22.10;61.30;101760.69;4827538;28;124441;-73
2021/09/08 06:19:05;;;;;;;62.17;47.33;;;;;;;22.14;61.09;101759.19;4813522;28;124664;-74
2021/09/08 06:21:31;;;;;;;58.83;44.90;;;;;;;22.17;61.41;101763.00;4827144;28;122459;-73
2021/09/08 06:23:56;;;;;;;62.97;47.10;;;;;;;22.18;60.59;101764.53;4826187;28;123549;-74
2021/09/08 06:26:25;;;;;;;59.17;46.45;;;;;;;22.17;61.21;101757.41;4826423;28;122540;-75
2021/09/08 06:28:52;;;;;;;59.95;45.55;;;;;;;22.21;60.95;101764.28;4828330;28;124134;-74
2021/09/08 06:31:19;;;;;;;61.13;46.83;;;;;;;22.24;61.11;101770.88;4819545;28;122253;-74
2021/09/08 06:33:45;;;;;;;61.78;47.28;;;;;;;22.25;61.11;101766.84;4825633;28;122237;-74
2021/09/08 06:36:11;;;;;;;62.60;46.58;;;;;;;22.30;61.22;101771.66;4800402;28;123479;-74
2021/09/08 06:38:37;;;;;;;61.90;46.65;;;;;;;22.30;61.45;101761.25;4823987;28;122620;-74
2021/09/08 06:41:03;;;;;;;60.37;46.43;;;;;;;22.35;61.21;101759.72;4824235;28;123233;-74
2021/09/08 06:43:29;;;;;;;61.05;47.33;;;;;;;22.41;61.31;101765.31;4845916;28;123442;-74
2021/09/08 06:45:56;;;;;;;65.60;47.88;;;;;;;22.44;61.16;101753.88;4796256;28;121919;-75
2021/09/08 06:48:22;;;;;;;59.80;46.13;;;;;;;22.48;60.86;101754.41;4820282;28;122571;-75
2021/09/08 06:50:48;;;;;;;64.28;47.47;;;;;;;22.50;61.05;101757.44;4806287;28;125939;-74
2021/09/08 06:53:17;;;;;;;60.35;45.67;;;;;;;22.52;61.32;101749.31;4821144;28;123152;-74
2021/09/08 06:55:43;;;;;;;59.15;45.30;;;;;;;22.59;60.78;101746.00;4806903;28;123112;-75
2021/09/08 06:58:08;;;;;;;61.80;45.97;;;;;;;22.64;60.65;101745.22;4819883;28;124622;-75
2021/09/08 07:00:39;;;;;;;60.30;45.57;;;;;;;22.61;60.82;101723.88;4820299;28;122506;-74
2021/09/08 07:03:06;;;;;;;59.45;44.35;;;;;;;22.72;60.72;101736.34;4806242;29;124253;-74
2021/09/08 07:05:32;;;;;;;55.47;43.63;;;;;;;22.77;59.25;101744.72;4822759;28;122646;-76
2021/09/08 07:07:58;;;;;;;55.80;41.97;;;;;;;22.80;59.38;101735.31;4822131;28;124350;-71
2021/09/08 07:10:24;;;;;;;52.85;41.72;;;;;;;22.83;59.30;101739.16;4826538;28;123112;-75
2021/09/08 07:12:50;;;;;;;52.60;40.63;;;;;;;22.85;59.85;101731.00;4806497;29;122833;-76
2021/09/08 07:15:16;;;;;;;53.45;39.38;;;;;;;22.90;61.01;101730.97;4810678;28;123577;-76
2021/09/08 07:17:42;;;;;;;52.33;39.73;;;;;;;22.94;59.63;101733.50;4821261;28;122743;-72
2021/09/08 07:20:09;;;;;;;51.13;39.87;;;;;;;22.97;59.89;101740.91;4818010;28;122024;-77
2021/09/08 07:22:34;;;;;;;51.15;39.08;;;;;;;22.96;60.66;101731.75;4810711;28;122308;-78
2021/09/08 07:25:00;;;;;;;49.08;37.72;;;;;;;23.01;60.36;101730.22;4824105;28;124298;-74
2021/09/08 07:27:26;;;;;;;50.80;39.23;;;;;;;23.05;59.58;101739.09;4810832;28;122748;-75
2021/09/08 07:29:51;;;;;;;49.97;39.03;;;;;;;23.06;59.64;101740.63;4820849;28;122793;-74
2021/09/08 07:32:17;;;;;;;47.10;38.03;;;;;;;23.05;59.01;101739.09;4820258;28;122638;-75
2021/09/08 07:34:43;;;;;;;45.13;34.83;;;;;;;23.10;60.28;101737.56;4823810;28;125006;-74
2021/09/08 07:37:09;;;;;;;49.27;36.23;;;;;;;23.09;59.55;101738.84;4830740;28;122853;-75
2021/09/08 07:39:34;;;;;;;50.17;36.87;;;;;;;23.11;59.07;101725.84;4834710;28;122074;-74
2021/09/08 07:42:00;;;;;;;47.33;36.40;;;;;;;23.14;59.22;101743.66;4828619;28;123747;-74
2021/09/08 07:44:26;;;;;;;47.17;36.33;;;;;;;23.13;58.47;101728.91;4831119;28;123476;-73
2021/09/08 07:46:52;;;;;;;45.20;35.47;;;;;;;23.17;58.50;101734.22;4830206;28;122028;-73
2021/09/08 07:49:18;;;;;;;42.40;33.70;;;;;;;23.19;59.90;101740.84;4820719;28;124514;-73
2021/09/08 07:51:43;;;;;;;47.73;35.43;;;;;;;23.18;58.59;101728.09;4831987;28;122568;-73
2021/09/08 07:54:09;;;;;;;43.13;33.33;;;;;;;23.22;59.02;101731.44;4830580;28;122859;-74
2021/09/08 07:56:34;;;;;;;46.60;34.72;;;;;;;23.17;58.24;101723.03;4814344;28;124131;-74
2021/09/08 07:59:00;;;;;;;41.70;32.35;;;;;;;23.25;59.38;101735.22;4823074;28;123992;-73
2021/09/08 08:01:26;;;;;;;42.40;31.92;;;;;;;23.28;59.63;101734.97;4821367;28;122650;-73
2021/09/08 08:03:51;;;;;;;42.83;31.08;;;;;;;23.33;59.64;101738.25;4803816;28;124485;-74
2021/09/08 08:06:17;;;;;;;38.03;30.10;;;;;;;23.36;59.30;101734.41;4807461;28;123893;-73
2021/09/08 08:08:43;;;;;;;41.93;31.40;;;;;;;23.41;57.93;101733.63;4834758;28;123273;-73
2021/09/08 08:11:08;;;;;;;38.97;30.87;;;;;;;23.42;58.68;101726.75;4811571;28;122123;-73
2021/09/08 08:13:34;;;;;;;38.60;30.03;;;;;;;23.48;58.80;101733.13;4806559;28;123159;-74
2021/09/08 08:16:00;;;;;;;37.60;28.13;;;;;;;23.54;59.34;101734.59;4823267;28;123906;-73
2021/09/08 08:18:25;;;;;;;33.72;26.90;;;;;;;23.59;59.30;101730.28;4818033;28;123181;-73
2021/09/08 08:20:51;;;;;;;37.40;28.27;;;;;;;23.65;59.77;101733.81;4790512;29;123367;-76
2021/09/08 08:23:17;;;;;;;37.25;29.85;;;;;;;23.70;58.42;101732.28;4804297;29;127184;-74
2021/09/08 08:25:42;;;;;;;38.40;28.70;;;;;;;23.76;57.92;101736.56;4800583;28;122353;-73
2021/09/08 08:28:08;;;;;;;35.43;28.47;;;;;;;23.80;57.55;101739.09;4815777;28;123303;-74
2021/09/08 08:30:35;;;;;;;32.10;26.07;;;;;;;23.84;58.25;101739.56;4827950;28;122271;-77
2021/09/08 08:33:02;;;;;;;38.03;28.42;;;;;;;23.91;57.82;101741.84;4818632;28;124507;-76
2021/09/08 08:35:28;;;;;;;32.87;25.37;;;;;;;23.96;58.51;101740.28;4816750;28;122888;-73
2021/09/08 08:37:54;;;;;;;32.97;26.55;;;;;;;24.00;58.08;101746.34;4806961;29;122620;-75
2021/09/08 08:40:21;;;;;;;33.15;25.48;;;;;;;24.08;58.45;101741.72;4812460;28;123325;-75
2021/09/08 08:42:56;;;;;;;31.88;24.60;;;;;;;24.12;58.30;101750.59;4826375;28;123830;-75
2021/09/08 08:45:25;;;;;;;29.05;23.40;;;;;;;24.12;58.13;101742.19;4828576;28;123030;-75
2021/09/08 08:47:52;;;;;;;29.20;22.90;;;;;;;24.18;57.64;101745.72;4828777;28;122648;-75
2021/09/08 08:50:18;;;;;;;26.67;21.50;;;;;;;24.16;58.01;101737.84;4826254;28;123188;-75
2021/09/08 08:52:45;;;;;;;27.83;22.10;;;;;;;24.25;57.88;101750.78;4826841;28;122176;-75
2021/09/08 08:55:12;;;;;;;28.17;22.83;;;;;;;24.23;57.58;101742.13;4826247;28;123238;-75
2021/09/08 08:57:38;;;;;;;29.05;21.52;;;;;;;24.22;56.81;101746.22;4828598;28;122218;-75
2021/09/08 09:00:05;;;;;;;24.33;20.23;;;;;;;24.19;57.81;101747.25;4797314;28;123833;-75
2021/09/08 09:02:32;;;;;;;26.40;20.83;;;;;;;24.14;57.68;101737.59;4809799;28;125124;-75
2021/09/08 09:05:04;;;;;;;26.15;20.23;;;;;;;24.12;57.36;101742.19;4822794;28;122540;-75
2021/09/08 09:07:32;;;;;;;26.27;21.00;;;;;;;24.11;57.50;101737.88;4811051;28;123508;-75
2021/09/08 09:10:12;;;;;;;26.98;21.65;;;;;;;24.10;57.35;101736.34;4829302;28;123209;-75
2021/09/08 09:12:45;;;;;;;25.95;20.20;;;;;;;24.12;57.39;101733.78;4825968;28;122415;-75
2021/09/08 09:15:17;;;;;;;25.92;20.17;;;;;;;24.18;57.89;101734.53;4834651;28;122656;-75
2021/09/08 09:17:44;;;;;;;23.38;18.23;;;;;;;24.21;57.75;101738.31;4845232;28;122541;-75
2021/09/08 09:20:30;;;;;;;22.23;18.30;;;;;;;24.22;58.45;101740.59;4827088;28;122787;-75
2021/09/08 09:23:01;;;;;;;23.85;16.10;;;;;;;24.27;57.98;101736.22;4827227;28;124574;-75
2021/09/08 09:25:36;;;;;;;20.63;15.70;;;;;;;24.29;57.33;101740.06;4829515;28;124414;-75
2021/09/08 09:28:05;;;;;;;19.17;15.57;;;;;;;24.31;58.45;101731.88;4788689;28;123562;-75
2021/09/08 09:30:39;;;;;;;18.65;15.00;;;;;;;24.39;58.09;101732.84;4819948;28;122505;-74
2021/09/08 09:33:07;;;;;;;18.25;15.07;;;;;;;24.42;56.76;101720.59;4807814;29;122895;-74
2021/09/08 09:35:33;;;;;;;19.83;15.23;;;;;;;24.53;56.75;101721.75;4804340;28;122668;-74
2021/09/08 09:38:03;;;;;;;16.87;13.93;;;;;;;24.59;57.26;101725.28;4826211;28;122618;-74
2021/09/08 09:40:34;;;;;;;17.23;13.40;;;;;;;24.69;57.49;101726.47;4815394;28;122875;-74
2021/09/08 09:43:07;;;;;;;16.75;13.60;;;;;;;24.74;56.73;101718.00;4815062;28;122639;-74
2021/09/08 09:45:41;;;;;;;17.30;13.55;;;;;;;24.78;56.56;101707.22;4822504;28;123461;-74
2021/09/08 09:48:07;;;;;;;16.98;13.55;;;;;;;24.86;56.67;101715.84;4802635;28;123331;-74
2021/09/08 09:50:34;;;;;;;18.27;13.85;;;;;;;24.90;56.39;101707.91;4817354;28;124448;-74
2021/09/08 09:53:00;;;;;;;17.85;13.57;;;;;;;25.00;56.43;101713.94;4821936;28;122534;-74
2021/09/08 09:55:27;;;;;;;15.15;12.20;;;;;;;25.01;56.44;101704.22;4816155;28;122011;-74
2021/09/08 09:57:53;;;;;;;15.82;12.77;;;;;;;25.09;55.97;101713.59;4816747;28;125795;-74
2021/09/08 10:00:20;;;;;;;18.27;13.02;;;;;;;25.13;55.32;101702.06;4815727;28;122390;-74
2021/09/08 10:02:47;;;;;;;18.87;13.90;;;;;;;25.15;55.59;101699.47;4801685;28;125741;-74
2021/09/08 10:05:14;;;;;;;17.92;13.77;;;;;;;25.15;55.14;101705.84;4816971;28;122412;-74
2021/09/08 10:07:40;;;;;;;17.65;13.50;;;;;;;25.19;56.33;101705.56;4822811;28;123308;-74
2021/09/08 10:10:17;;;;;;;17.98;13.90;;;;;;;25.20;55.11;101696.59;4815592;28;122358;-74
2021/09/08 10:12:48;;;;;;;15.95;12.70;;;;;;;25.22;55.63;101696.81;4821631;28;122369;-74
2021/09/08 10:15:16;;;;;;;20.40;13.30;;;;;;;25.23;56.06;101700.41;4818111;28;123168;-74
2021/09/08 10:17:47;;;;;;;17.08;13.63;;;;;;;25.25;55.97;101681.72;4816798;28;123236;-74
2021/09/08 10:20:23;;;;;;;19.52;15.15;;;;;;;25.28;54.20;101683.47;4823282;28;122359;-74
2021/09/08 10:22:50;;;;;;;20.70;15.67;;;;;;;25.28;54.60;101666.63;4802059;28;123981;-74
2021/09/08 10:25:22;;;;;;;23.58;15.82;;;;;;;25.30;55.16;101678.09;4820832;28;122524;-74
2021/09/08 10:27:56;;;;;;;22.50;15.98;;;;;;;25.28;54.67;101672.22;4823031;28;121955;-74
2021/09/08 10:30:26;;;;;;;24.33;15.70;;;;;;;25.31;55.51;101668.38;4800710;28;123111;-74
2021/09/08 10:32:53;;;;;;;19.48;13.65;;;;;;;25.34;55.47;101663.75;4817565;28;123187;-74
2021/09/08 10:35:21;;;;;;;20.45;15.25;;;;;;;25.40;55.25;101664.44;4819830;28;122411;-74
2021/09/08 10:37:49;;;;;;;25.55;17.15;;;;;;;25.42;54.75;101666.72;4822032;28;122447;-74
2021/09/08 10:40:17;;;;;;;23.33;16.65;;;;;;;25.47;55.39;101661.00;4807177;28;122774;-74
2021/09/08 10:42:48;;;;;;;20.88;15.25;;;;;;;25.52;55.40;101662.22;4822178;28;123558;-74
2021/09/08 10:45:28;;;;;;;25.23;18.97;;;;;;;25.53;54.63;101663.75;4823180;28;122895;-74
2021/09/08 10:47:56;;;;;;;22.83;16.40;;;;;;;25.52;54.93;101657.34;4825421;28;122043;-74
2021/09/08 10:50:34;;;;;;;25.58;18.13;;;;;;;25.58;55.25;101660.88;4824018;28;122374;-74
2021/09/08 10:53:21;;;;;;;27.47;18.57;;;;;;;25.60;54.77;101661.09;4819395;28;123671;-74
2021/09/08 10:55:48;;;;;;;29.08;18.90;;;;;;;25.64;54.86;101655.16;4815774;28;123475;-74
2021/09/08 10:58:14;;;;;;;24.10;18.92;;;;;;;25.66;54.63;101646.97;4803072;29;124696;-74
2021/09/08 11:00:42;;;;;;;26.55;19.40;;;;;;;25.74;55.09;101652.75;4822736;28;122563;-74